Terminal Aerodrome Forecast
Issued by NWS Sterling, VA

Current Version | Previous Version | Graphics & Text | Print | Product List | Glossary On
Versions: 1 2 3 4 5 6 7 8 9 10 11 12 13 14 15 16 17 18 19
000
FTUS41 KLWX 221559 AAA
TAFMRB
TAF AMD
KMRB 221559Z 2216/2312 35007KT 5SM -RA SCT010 OVC040
      TEMPO 2218/2222 BKN010
     FM230100 34004KT 3SM -SHRA BR OVC025
     FM230400 33004KT 3SM BR OVC020=

USA.gov is the U.S. government's official web portal to all federal, state and local government web resources and services.